createdAt,value
2018-06-03T00:01:37.522Z,90.13
2018-06-03T00:04:06.175Z,90.52
2018-06-03T00:06:34.606Z,90.26
2018-06-03T00:09:03.099Z,90.54
2018-06-03T00:11:31.562Z,90.47
2018-06-03T00:13:59.949Z,90.02
2018-06-03T00:16:28.298Z,89.88
2018-06-03T00:18:56.776Z,89.80
2018-06-03T00:21:36.434Z,89.72
2018-06-03T00:24:04.841Z,89.37
2018-06-03T00:26:33.287Z,89.65
2018-06-03T00:29:01.795Z,89.41
2018-06-03T00:31:30.265Z,89.35
2018-06-03T00:33:58.646Z,89.57
2018-06-03T00:36:38.216Z,89.77
2018-06-03T00:39:08.514Z,89.37
2018-06-03T00:41:37.038Z,89.33
2018-06-03T00:44:05.519Z,89.26
2018-06-03T00:46:34.009Z,89.16
2018-06-03T00:49:02.436Z,90.09
2018-06-03T00:51:30.805Z,90.30
2018-06-03T00:53:59.202Z,90.27
2018-06-03T00:56:38.994Z,90.21
2018-06-03T00:59:07.480Z,90.65
2018-06-03T01:01:36.070Z,90.95
2018-06-03T01:04:04.522Z,91.01
2018-06-03T01:06:32.950Z,90.98
2018-06-03T01:09:01.436Z,91.09
2018-06-03T01:11:30.092Z,90.62
2018-06-03T01:13:59.642Z,90.63
2018-06-03T01:16:28.010Z,90.28
2018-06-03T01:18:56.458Z,90.33
2018-06-03T01:21:24.859Z,90.51
2018-06-03T01:23:53.372Z,91.17
2018-06-03T01:26:21.722Z,91.35
2018-06-03T01:28:50.131Z,91.57
2018-06-03T01:31:18.588Z,91.53
2018-06-03T01:33:46.982Z,92.02
2018-06-03T01:36:15.356Z,92.12
2018-06-03T01:38:43.750Z,92.09
2018-06-03T01:41:12.209Z,92.28
2018-06-03T01:43:40.589Z,92.88
2018-06-03T01:46:08.980Z,93.17
2018-06-03T01:48:37.416Z,92.83
2018-06-03T01:51:06.038Z,93.11
2018-06-03T01:53:34.398Z,92.63
2018-06-03T01:56:02.807Z,92.86
2018-06-03T01:58:31.168Z,92.59
2018-06-03T02:00:59.573Z,92.50
2018-06-03T02:03:28.019Z,92.77
2018-06-03T02:05:56.498Z,92.90
2018-06-03T02:08:24.881Z,93.12
2018-06-03T02:10:53.386Z,93.23
2018-06-03T02:13:21.922Z,93.11
2018-06-03T02:15:50.522Z,93.23
2018-06-03T02:18:18.958Z,93.47
2018-06-03T02:20:47.418Z,93.42
2018-06-03T02:23:15.874Z,93.59
2018-06-03T02:25:44.276Z,93.79
2018-06-03T02:28:12.757Z,93.56
2018-06-03T02:30:41.230Z,93.24
2018-06-03T02:33:09.595Z,93.51
2018-06-03T02:35:38.011Z,93.84
2018-06-03T02:38:06.527Z,93.71
2018-06-03T02:40:34.986Z,93.83
2018-06-03T02:43:03.499Z,94.24
2018-06-03T02:45:31.924Z,94.23
2018-06-03T02:48:00.406Z,94.42
2018-06-03T02:50:28.926Z,94.24
2018-06-03T02:52:57.359Z,93.69
2018-06-03T02:55:25.748Z,93.88
2018-06-03T02:57:54.230Z,93.65
2018-06-03T03:00:22.770Z,94.01
2018-06-03T03:02:51.246Z,94.32
2018-06-03T03:05:19.683Z,94.57
2018-06-03T03:07:48.126Z,94.84
2018-06-03T03:10:16.631Z,95.20
2018-06-03T03:12:45.091Z,95.34
2018-06-03T03:15:13.506Z,95.42
2018-06-03T03:17:41.974Z,94.96
2018-06-03T03:20:10.466Z,95.20
2018-06-03T03:22:38.914Z,95.03
2018-06-03T03:25:07.322Z,94.73
2018-06-03T03:27:36.094Z,94.93
2018-06-03T03:30:04.561Z,95.10
2018-06-03T03:32:32.962Z,94.90
2018-06-03T03:35:01.343Z,94.57
2018-06-03T03:37:29.822Z,94.66
2018-06-03T03:39:58.199Z,94.79
2018-06-03T03:42:26.590Z,94.92
2018-06-03T03:44:55.085Z,94.81
2018-06-03T03:47:23.562Z,95.24
2018-06-03T03:49:51.999Z,95.38
2018-06-03T03:52:20.414Z,95.47
2018-06-03T03:54:48.871Z,95.13
2018-06-03T03:57:17.291Z,94.39
2018-06-03T03:59:45.729Z,94.63
2018-06-03T04:02:14.142Z,94.11
2018-06-03T04:04:42.591Z,94.46
2018-06-03T04:07:10.998Z,94.15
2018-06-03T04:09:39.466Z,93.74
2018-06-03T04:12:08.003Z,93.90
2018-06-03T04:14:36.414Z,93.53
2018-06-03T04:17:04.822Z,93.33
2018-06-03T04:19:33.280Z,93.58
2018-06-03T04:22:01.760Z,92.62
2018-06-03T04:24:30.226Z,91.75
2018-06-03T04:26:58.642Z,91.12
2018-06-03T04:29:27.038Z,91.36
2018-06-03T04:31:55.558Z,89.88
2018-06-03T04:34:23.986Z,89.21
2018-06-03T04:36:52.498Z,88.25
2018-06-03T04:39:20.950Z,88.44
2018-06-03T04:41:49.414Z,87.96
2018-06-03T04:44:17.819Z,87.11
2018-06-03T04:46:46.290Z,85.92
2018-06-03T04:49:14.674Z,85.94
2018-06-03T04:51:43.128Z,85.76
2018-06-03T04:54:11.541Z,84.90
2018-06-03T04:56:39.992Z,84.67
2018-06-03T04:59:08.395Z,84.09
2018-06-03T05:01:36.878Z,83.92
2018-06-03T05:04:05.491Z,83.47
2018-06-03T05:06:33.995Z,83.67
2018-06-03T05:09:02.456Z,83.89
2018-06-03T05:11:30.892Z,83.87
2018-06-03T05:13:59.270Z,84.22
2018-06-03T05:16:27.634Z,83.71
2018-06-03T05:18:56.095Z,83.56
2018-06-03T05:21:24.574Z,83.91
2018-06-03T05:23:53.057Z,83.58
2018-06-03T05:26:21.467Z,84.48
2018-06-03T05:28:49.870Z,84.46
2018-06-03T05:31:18.395Z,83.76
2018-06-03T05:33:46.822Z,84.31
2018-06-03T05:36:15.169Z,84.43
2018-06-03T05:38:43.577Z,85.16
2018-06-03T05:41:11.938Z,84.99
2018-06-03T05:43:40.347Z,85.09
2018-06-03T05:46:08.810Z,85.52
2018-06-03T05:48:37.198Z,84.56
2018-06-03T05:51:05.559Z,85.57
2018-06-03T05:53:33.975Z,85.66
2018-06-03T05:56:02.422Z,85.20
2018-06-03T05:58:30.814Z,84.64
2018-06-03T06:00:59.203Z,84.26
2018-06-03T06:03:27.665Z,83.92
2018-06-03T06:05:56.066Z,83.43
2018-06-03T06:08:24.514Z,82.96
2018-06-03T06:10:52.963Z,82.55
2018-06-03T06:13:21.398Z,82.19
2018-06-03T06:15:49.850Z,81.76
2018-06-03T06:18:18.249Z,81.32
2018-06-03T06:23:15.614Z,79.24
2018-06-03T06:25:44.038Z,79.61
2018-06-03T06:28:12.478Z,79.39
2018-06-03T06:30:40.886Z,78.68
2018-06-03T06:33:09.342Z,78.65
2018-06-03T06:35:37.751Z,78.41
2018-06-03T06:38:06.220Z,77.70
2018-06-03T06:40:34.856Z,76.86
2018-06-03T06:43:07.004Z,76.58
2018-06-03T06:45:39.158Z,76.51
2018-06-03T06:48:10.006Z,76.63
2018-06-03T06:50:44.221Z,76.36
2018-06-03T06:53:16.303Z,77.01
2018-06-03T06:55:47.320Z,75.47
2018-06-03T06:58:19.597Z,74.07
2018-06-03T07:00:50.330Z,73.70
2018-06-03T07:03:21.673Z,72.56
2018-06-03T07:05:52.786Z,72.12
2018-06-03T07:08:25.019Z,71.52
2018-06-03T07:10:56.901Z,71.48
2018-06-03T07:13:27.565Z,71.14
2018-06-03T07:16:00.048Z,70.22
2018-06-03T07:18:30.828Z,69.96
2018-06-03T07:21:02.326Z,69.01
2018-06-03T07:23:34.068Z,68.37
2018-06-03T07:26:05.425Z,67.56
2018-06-03T07:28:35.952Z,68.25
2018-06-03T07:31:06.896Z,68.23
2018-06-03T07:33:37.732Z,67.43
2018-06-03T07:36:08.462Z,67.36
2018-06-03T07:38:40.727Z,67.02
2018-06-03T07:41:14.260Z,66.40
2018-06-03T07:43:47.306Z,65.96
2018-06-03T07:46:19.477Z,64.08
2018-06-03T07:48:53.085Z,64.63
2018-06-03T07:51:24.735Z,63.63
2018-06-03T07:53:55.148Z,63.18
2018-06-03T07:56:26.922Z,62.75
2018-06-03T07:59:06.045Z,60.85
2018-06-03T08:01:39.167Z,60.33
2018-06-03T08:08:30.870Z,61.16
2018-06-03T08:11:02.831Z,59.80
2018-06-03T08:13:34.284Z,58.93
2018-06-03T08:16:06.654Z,58.44
2018-06-03T08:18:40.149Z,57.63
2018-06-03T08:21:12.925Z,58.53
2018-06-03T08:23:44.784Z,57.74
2018-06-03T08:26:16.954Z,58.67
2018-06-03T08:28:48.094Z,57.10
2018-06-03T08:31:20.055Z,56.25
2018-06-03T08:33:50.268Z,57.25
2018-06-03T08:41:57.884Z,55.99
2018-06-03T08:44:30.779Z,55.00
2018-06-03T08:56:25.587Z,54.01
2018-06-03T08:58:54.146Z,52.92
2018-06-03T09:01:22.618Z,52.18
2018-06-03T09:03:51.127Z,50.37
2018-06-03T09:06:19.517Z,50.52
2018-06-03T09:08:48.007Z,51.83
2018-06-03T09:11:16.612Z,49.14
2018-06-03T09:13:45.366Z,48.47
2018-06-03T09:16:13.747Z,48.51
2018-06-03T09:18:42.126Z,48.22
2018-06-03T09:21:10.562Z,49.66
2018-06-03T09:23:39.049Z,47.21
2018-06-03T09:26:07.643Z,48.06
2018-06-03T09:28:36.143Z,47.03
2018-06-03T09:31:06.593Z,46.86
2018-06-03T09:33:36.180Z,47.29
2018-06-03T09:36:04.666Z,46.39
2018-06-03T09:38:33.098Z,46.14
2018-06-03T09:41:01.634Z,45.97
2018-06-03T09:43:30.059Z,43.80
2018-06-03T09:45:58.570Z,43.84
2018-06-03T09:48:27.055Z,42.33
2018-06-03T09:50:55.487Z,43.22
2018-06-03T09:53:24.028Z,41.86
2018-06-03T09:55:52.530Z,42.28
2018-06-03T09:58:20.953Z,44.06
2018-06-03T10:00:49.447Z,40.04
2018-06-03T10:03:17.903Z,42.23
2018-06-03T10:05:47.403Z,39.80
2018-06-03T10:08:15.850Z,40.55
2018-06-03T10:10:44.371Z,41.46
2018-06-03T10:13:12.966Z,40.23
2018-06-03T10:15:41.435Z,42.81
2018-06-03T10:18:15.015Z,41.43
2018-06-03T10:20:50.656Z,41.39
2018-06-03T10:23:19.359Z,39.31
2018-06-03T10:25:47.891Z,38.85
2018-06-03T10:28:16.301Z,36.39
2018-06-03T10:30:55.392Z,35.81
2018-06-03T10:33:30.328Z,35.63
2018-06-03T10:36:06.081Z,35.63
2018-06-03T10:38:44.956Z,34.13
2018-06-03T10:41:16.382Z,33.80
2018-06-03T10:43:45.002Z,33.68
2018-06-03T10:46:13.589Z,33.91
2018-06-03T10:48:42.228Z,34.66
2018-06-03T10:51:10.616Z,34.22
2018-06-03T10:53:39.095Z,34.82
2018-06-03T10:56:07.622Z,34.66
2018-06-03T10:58:36.094Z,38.06
2018-06-03T11:01:04.526Z,36.81
2018-06-03T11:03:32.955Z,38.17
2018-06-03T11:06:01.411Z,39.02
2018-06-03T11:08:29.898Z,41.52
2018-06-03T11:10:58.415Z,43.12
2018-06-03T11:13:26.875Z,42.93
2018-06-03T11:15:55.391Z,43.43
2018-06-03T11:18:23.806Z,45.01
2018-06-03T11:20:52.263Z,45.89
2018-06-03T11:23:20.651Z,42.97
2018-06-03T11:25:49.130Z,40.82
2018-06-03T11:28:17.546Z,41.53
2018-06-03T11:30:46.000Z,39.99
2018-06-03T11:33:14.522Z,38.28
2018-06-03T11:35:43.182Z,39.62
2018-06-03T11:38:11.661Z,39.87
2018-06-03T11:40:40.192Z,37.47
2018-06-03T11:43:08.715Z,36.55
2018-06-03T11:45:37.295Z,36.93
2018-06-03T11:48:05.827Z,34.48
2018-06-03T11:50:34.360Z,33.34
2018-06-03T11:53:02.855Z,31.42
2018-06-03T11:55:31.280Z,31.27
2018-06-03T11:59:08.946Z,30.85
2018-06-03T12:01:37.502Z,30.30
2018-06-03T12:04:05.894Z,26.26
2018-06-03T12:06:34.414Z,26.83
2018-06-03T12:09:03.103Z,24.41
2018-06-03T12:11:31.646Z,24.76
2018-06-03T12:14:00.094Z,25.95
2018-06-03T12:16:28.539Z,27.34
2018-06-03T12:18:57.147Z,25.42
2018-06-03T12:21:25.582Z,25.49
2018-06-03T12:23:54.088Z,23.77
2018-06-03T12:26:22.591Z,25.87
2018-06-03T12:28:51.034Z,25.23
2018-06-03T12:31:19.528Z,23.40
2018-06-03T12:33:47.971Z,22.60
2018-06-03T12:36:16.434Z,22.49
2018-06-03T12:38:44.855Z,20.73
2018-06-03T12:41:13.369Z,23.11
2018-06-03T12:43:41.851Z,21.48
2018-06-03T12:46:10.379Z,21.37
2018-06-03T12:48:38.797Z,21.72
2018-06-03T12:51:08.396Z,25.16
2018-06-03T12:53:36.898Z,21.36
2018-06-03T12:56:05.338Z,21.16
2018-06-03T12:58:33.827Z,21.16
2018-06-03T13:01:02.314Z,21.51
2018-06-03T13:03:30.903Z,21.07
2018-06-03T13:05:59.363Z,21.64
2018-06-03T13:08:27.806Z,21.03
2018-06-03T13:10:56.432Z,21.54
2018-06-03T13:13:25.024Z,21.29
2018-06-03T13:15:53.586Z,21.51
2018-06-03T13:18:22.069Z,19.72
2018-06-03T13:20:50.443Z,19.94
2018-06-03T13:23:18.933Z,20.30
2018-06-03T13:25:47.330Z,20.48
2018-06-03T13:28:15.862Z,20.63
2018-06-03T13:30:44.315Z,21.06
2018-06-03T13:33:12.840Z,20.72
2018-06-03T13:35:41.238Z,22.05
2018-06-03T13:38:09.624Z,21.18
2018-06-03T13:40:38.031Z,21.10
2018-06-03T13:43:06.683Z,21.12
2018-06-03T13:45:35.219Z,20.79
2018-06-03T13:48:03.634Z,21.37
2018-06-03T13:50:32.186Z,21.55
2018-06-03T13:53:01.024Z,19.98
2018-06-03T13:55:29.458Z,17.46
2018-06-03T13:57:57.910Z,18.76
2018-06-03T14:00:26.475Z,18.77
2018-06-03T14:02:55.002Z,17.52
2018-06-03T14:05:23.425Z,18.37
2018-06-03T14:07:52.083Z,17.90
2018-06-03T14:10:20.694Z,17.45
2018-06-03T14:12:49.152Z,18.11
2018-06-03T14:15:17.702Z,18.76
2018-06-03T14:17:46.526Z,18.55
2018-06-03T14:20:15.029Z,18.45
2018-06-03T14:22:44.095Z,18.78
2018-06-03T14:25:12.649Z,18.55
2018-06-03T14:27:41.441Z,19.10
2018-06-03T14:30:09.979Z,21.69
2018-06-03T14:32:38.462Z,21.13
2018-06-03T14:35:06.874Z,19.47
2018-06-03T14:37:35.542Z,20.90
2018-06-03T14:40:04.710Z,19.69
2018-06-03T14:42:33.106Z,19.48
2018-06-03T14:45:01.503Z,21.50
2018-06-03T14:47:30.781Z,23.31
2018-06-03T14:49:59.297Z,22.37
2018-06-03T14:52:29.094Z,21.00
2018-06-03T14:54:58.210Z,20.46
2018-06-03T14:57:26.661Z,22.26
2018-06-03T14:59:55.054Z,21.84
2018-06-03T15:02:23.698Z,21.66
2018-06-03T15:04:52.182Z,22.35
2018-06-03T15:07:20.867Z,21.95
2018-06-03T15:09:49.516Z,21.14
2018-06-03T15:12:18.102Z,22.55
2018-06-03T15:14:46.547Z,23.14
2018-06-03T15:17:15.014Z,23.30
2018-06-03T15:19:43.694Z,22.74
2018-06-03T15:22:15.915Z,23.83
2018-06-03T15:24:44.376Z,22.17
2018-06-03T15:27:13.050Z,23.01
2018-06-03T15:29:41.523Z,20.91
2018-06-03T15:32:09.954Z,19.71
2018-06-03T15:34:38.435Z,21.46
2018-06-03T15:37:07.018Z,21.36
2018-06-03T15:39:35.483Z,22.23
2018-06-03T15:42:04.064Z,22.42
2018-06-03T15:44:32.494Z,21.46
2018-06-03T15:47:01.390Z,23.28
2018-06-03T15:49:29.843Z,22.57
2018-06-03T15:51:58.333Z,22.15
2018-06-03T15:54:26.797Z,24.25
2018-06-03T15:56:55.255Z,27.06
2018-06-03T15:59:23.674Z,27.67
2018-06-03T16:01:52.332Z,24.23
2018-06-03T16:04:21.015Z,24.62
2018-06-03T16:06:49.435Z,23.85
2018-06-03T16:09:17.933Z,25.37
2018-06-03T16:11:46.422Z,26.31
2018-06-03T16:14:14.871Z,27.11
2018-06-03T16:16:43.310Z,28.10
2018-06-03T16:19:11.975Z,29.91
2018-06-03T16:21:40.420Z,29.80
2018-06-03T16:24:08.770Z,31.55
2018-06-03T16:26:37.213Z,30.48
2018-06-03T16:29:05.939Z,31.85
2018-06-03T16:31:34.370Z,31.21
2018-06-03T16:34:03.013Z,33.51
2018-06-03T16:36:31.506Z,33.33
2018-06-03T16:39:00.054Z,34.12
2018-06-03T16:41:28.619Z,36.65
2018-06-03T16:43:57.079Z,39.01
2018-06-03T16:46:25.546Z,40.05
2018-06-03T16:48:54.002Z,40.65
2018-06-03T16:51:22.356Z,41.37
2018-06-03T16:53:50.778Z,42.47
2018-06-03T16:56:19.229Z,44.44
2018-06-03T16:58:47.762Z,45.23
2018-06-03T17:01:16.286Z,46.08
2018-06-03T17:03:44.724Z,46.76
2018-06-03T17:06:13.179Z,48.41
2018-06-03T17:08:42.383Z,48.39
2018-06-03T17:11:10.841Z,48.88
2018-06-03T17:13:39.314Z,49.73
2018-06-03T17:16:07.775Z,49.94
2018-06-03T17:18:36.325Z,50.47
2018-06-03T17:21:04.860Z,50.69
2018-06-03T17:23:33.358Z,51.56
2018-06-03T17:26:01.850Z,51.55
2018-06-03T17:28:30.350Z,50.96
2018-06-03T17:30:58.819Z,52.37
2018-06-03T17:33:27.323Z,51.62
2018-06-03T17:35:55.758Z,51.18
2018-06-03T17:38:24.254Z,51.39
2018-06-03T17:40:53.098Z,51.71
2018-06-03T17:43:21.511Z,52.11
2018-06-03T17:45:54.130Z,51.99
2018-06-03T17:48:22.847Z,52.00
2018-06-03T17:50:51.655Z,53.32
2018-06-03T17:53:20.578Z,53.12
2018-06-03T17:55:49.060Z,53.79
2018-06-03T17:58:17.674Z,54.16
2018-06-03T18:00:46.098Z,54.51
2018-06-03T18:03:14.536Z,55.98
2018-06-03T18:05:42.957Z,55.17
2018-06-03T18:08:11.402Z,55.74
2018-06-03T18:10:39.914Z,56.02
2018-06-03T18:13:08.467Z,55.77
2018-06-03T18:15:36.893Z,56.34
2018-06-03T18:18:05.374Z,56.19
2018-06-03T18:20:33.842Z,55.64
2018-06-03T18:23:04.630Z,56.24
2018-06-03T18:25:35.866Z,56.20
2018-06-03T18:28:07.742Z,57.24
2018-06-03T18:30:38.666Z,56.96
2018-06-03T18:33:09.235Z,58.07
2018-06-03T18:35:40.249Z,57.42
2018-06-03T18:38:11.076Z,57.26
2018-06-03T18:40:42.940Z,57.76
2018-06-03T18:43:14.796Z,58.70
2018-06-03T18:45:47.256Z,58.67
2018-06-03T18:48:18.449Z,59.23
2018-06-03T18:50:49.157Z,59.67
2018-06-03T18:53:20.551Z,59.86
2018-06-03T18:55:51.322Z,60.40
2018-06-03T18:58:22.376Z,60.14
2018-06-03T19:00:53.195Z,60.87
2018-06-03T19:03:23.823Z,60.81
2018-06-03T19:05:54.958Z,61.56
2018-06-03T19:08:28.045Z,62.23
2018-06-03T19:10:58.460Z,62.28
2018-06-03T19:13:28.996Z,62.76
2018-06-03T19:16:00.567Z,63.23
2018-06-03T19:18:31.609Z,62.99
2018-06-03T19:21:02.628Z,63.36
2018-06-03T19:23:33.970Z,63.75
2018-06-03T19:26:04.833Z,63.98
2018-06-03T19:28:36.033Z,64.35
2018-06-03T19:31:07.803Z,64.44
2018-06-03T19:33:37.712Z,64.60
2018-06-03T19:36:08.028Z,64.78
2018-06-03T19:38:38.459Z,64.24
2018-06-03T19:41:08.986Z,65.03
2018-06-03T19:43:39.327Z,65.19
2018-06-03T19:46:09.656Z,65.08
2018-06-03T19:48:41.130Z,65.56
2018-06-03T19:51:13.859Z,65.44
2018-06-03T19:53:45.001Z,65.38
2018-06-03T19:56:15.628Z,65.42
2018-06-03T19:58:48.018Z,65.66
2018-06-03T20:01:19.246Z,65.73
2018-06-03T20:03:51.240Z,65.86
2018-06-03T20:06:21.938Z,66.62
2018-06-03T20:08:50.638Z,67.16
2018-06-03T20:11:22.254Z,67.21
2018-06-03T20:13:54.433Z,67.84
2018-06-03T20:16:25.266Z,68.52
2018-06-03T20:18:56.712Z,68.50
2018-06-03T20:21:27.106Z,68.58
2018-06-03T20:23:58.176Z,69.18
2018-06-03T20:26:29.522Z,69.00
2018-06-03T20:29:01.063Z,70.42
2018-06-03T20:31:31.692Z,70.47
2018-06-03T20:34:04.185Z,70.69
2018-06-03T20:36:36.509Z,71.17
2018-06-03T20:39:09.024Z,71.45
2018-06-03T20:41:39.947Z,71.93
2018-06-03T20:44:11.392Z,71.71
2018-06-03T20:46:42.024Z,72.26
2018-06-03T20:49:12.448Z,73.52
2018-06-03T20:51:43.525Z,73.77
2018-06-03T20:54:14.523Z,73.92
2018-06-03T20:56:46.169Z,74.07
2018-06-03T20:59:21.712Z,74.33
2018-06-03T21:01:53.991Z,74.87
2018-06-03T21:04:24.824Z,75.07
2018-06-03T21:06:55.044Z,75.54
2018-06-03T21:09:25.572Z,75.64
2018-06-03T21:11:56.787Z,75.63
2018-06-03T21:14:25.370Z,75.77
2018-06-03T21:16:53.801Z,75.08
2018-06-03T21:19:22.270Z,75.15
2018-06-03T21:21:50.831Z,75.52
2018-06-03T21:24:19.407Z,75.86
2018-06-03T21:26:47.777Z,76.17
2018-06-03T21:29:16.219Z,76.03
2018-06-03T21:31:44.682Z,76.21
2018-06-03T21:34:13.179Z,76.34
2018-06-03T21:36:41.634Z,76.01
2018-06-03T21:39:10.059Z,76.36
2018-06-03T21:41:38.488Z,76.57
2018-06-03T21:44:06.894Z,76.02
2018-06-03T21:46:35.360Z,76.44
2018-06-03T21:49:03.830Z,75.92
2018-06-03T21:51:32.199Z,75.16
2018-06-03T21:54:00.595Z,75.01
2018-06-03T21:56:29.210Z,74.28
2018-06-03T21:58:57.693Z,74.00
2018-06-03T22:01:26.118Z,74.73
2018-06-03T22:06:22.073Z,74.42
2018-06-03T22:08:50.454Z,73.80
2018-06-03T22:11:18.994Z,73.76
2018-06-03T22:13:47.471Z,73.63
2018-06-03T22:16:15.954Z,73.08
2018-06-03T22:18:44.393Z,72.76
2018-06-03T22:21:12.906Z,72.67
2018-06-03T22:23:41.358Z,73.09
2018-06-03T22:26:09.821Z,73.75
2018-06-03T22:28:38.226Z,72.75
2018-06-03T22:31:06.668Z,73.13
2018-06-03T22:33:35.156Z,74.77
2018-06-03T22:36:03.527Z,78.33
2018-06-03T22:38:31.924Z,79.86
2018-06-03T22:41:00.310Z,81.67
2018-06-03T22:43:28.766Z,82.96
2018-06-03T22:45:57.167Z,84.77
2018-06-03T22:48:25.541Z,86.71
2018-06-03T22:50:53.970Z,88.22
2018-06-03T22:53:22.397Z,90.13
2018-06-03T22:55:50.782Z,90.93
2018-06-03T22:58:19.193Z,89.46
2018-06-03T23:00:47.655Z,88.62
2018-06-03T23:03:16.654Z,88.93
2018-06-03T23:05:45.142Z,91.96
2018-06-03T23:08:13.606Z,92.13
2018-06-03T23:10:42.174Z,93.36
2018-06-03T23:13:10.584Z,93.12
2018-06-03T23:15:39.087Z,94.73
2018-06-03T23:18:07.510Z,95.04
2018-06-03T23:20:35.918Z,95.39
2018-06-03T23:23:04.398Z,95.67
2018-06-03T23:25:32.947Z,94.57
2018-06-03T23:28:01.362Z,94.99
2018-06-03T23:30:29.869Z,95.12
2018-06-03T23:32:58.352Z,95.74
2018-06-03T23:35:26.818Z,96.38
2018-06-03T23:37:55.333Z,96.06
2018-06-03T23:40:23.806Z,95.90
2018-06-03T23:42:52.332Z,95.61
2018-06-03T23:45:20.734Z,95.44
2018-06-03T23:47:49.186Z,95.31
2018-06-03T23:50:17.776Z,95.22
2018-06-03T23:52:46.142Z,92.90
2018-06-03T23:55:14.560Z,90.33
2018-06-03T23:57:43.031Z,90.19
